createdAt,value
2022-10-08T00:00:59.375Z,12.20
2022-10-08T00:03:31.383Z,12.85
2022-10-08T00:06:03.300Z,12.90
2022-10-08T00:08:37.796Z,11.52
2022-10-08T00:11:10.036Z,12.45
2022-10-08T00:13:43.305Z,11.40
2022-10-08T00:16:15.307Z,12.32
2022-10-08T00:18:47.103Z,12.10
2022-10-08T00:21:19.231Z,11.88
2022-10-08T00:23:53.057Z,11.43
2022-10-08T00:26:25.890Z,10.88
2022-10-08T00:28:57.417Z,12.48
2022-10-08T00:31:29.150Z,12.55
2022-10-08T00:34:00.870Z,10.90
2022-10-08T00:36:32.383Z,11.07
2022-10-08T00:39:06.696Z,11.30
2022-10-08T00:41:39.238Z,11.95
2022-10-08T00:44:38.900Z,11.02
2022-10-08T00:47:16.581Z,12.07
2022-10-08T00:49:46.590Z,11.77
2022-10-08T00:52:16.661Z,11.50
2022-10-08T00:54:50.125Z,10.98
2022-10-08T00:57:20.663Z,11.70
2022-10-08T00:59:50.718Z,12.05
2022-10-08T01:02:20.536Z,12.52
2022-10-08T01:04:51.050Z,11.75
2022-10-08T01:07:27.003Z,11.38
2022-10-08T01:10:08.129Z,11.73
2022-10-08T01:12:51.008Z,11.13
2022-10-08T01:15:27.643Z,11.15
2022-10-08T01:18:06.411Z,11.55
2022-10-08T01:20:53.914Z,11.10
2022-10-08T01:23:44.142Z,10.80
2022-10-08T01:26:46.190Z,10.90
2022-10-08T01:29:24.039Z,11.00
2022-10-08T01:31:57.571Z,11.13
2022-10-08T01:34:32.862Z,10.73
2022-10-08T01:37:03.935Z,11.32
2022-10-08T01:39:36.591Z,11.68
2022-10-08T01:42:10.173Z,11.60
2022-10-08T01:44:46.397Z,10.60
2022-10-08T01:47:20.742Z,10.40
2022-10-08T01:52:26.884Z,10.30
2022-10-08T01:57:30.628Z,9.95
2022-10-08T02:00:07.119Z,10.65
2022-10-08T02:02:36.898Z,10.40
2022-10-08T02:05:07.699Z,10.80
2022-10-08T02:07:41.344Z,10.82
2022-10-08T02:10:14.171Z,11.52
2022-10-08T02:12:45.547Z,11.60
2022-10-08T02:15:22.812Z,10.25
2022-10-08T02:18:02.018Z,10.55
2022-10-08T02:20:37.179Z,11.15
2022-10-08T02:23:25.719Z,11.13
2022-10-08T02:25:59.834Z,10.98
2022-10-08T02:28:34.385Z,10.80
2022-10-08T02:31:10.888Z,11.18
2022-10-08T02:33:46.709Z,11.38
2022-10-08T02:36:20.145Z,11.05
2022-10-08T02:38:55.097Z,10.40
2022-10-08T02:41:31.974Z,10.68
2022-10-08T02:44:06.576Z,10.52
2022-10-08T02:46:42.958Z,11.13
2022-10-08T02:49:18.221Z,11.43
2022-10-08T02:51:50.692Z,11.48
2022-10-08T02:54:23.490Z,10.82
2022-10-08T02:56:58.022Z,10.48
2022-10-08T02:59:28.260Z,10.82
2022-10-08T03:02:02.712Z,10.38
2022-10-08T03:04:36.937Z,10.55
2022-10-08T03:07:07.430Z,9.63
2022-10-08T03:09:40.220Z,9.98
2022-10-08T03:12:10.320Z,9.90
2022-10-08T03:14:43.465Z,10.07
2022-10-08T03:17:19.837Z,9.77
2022-10-08T03:19:49.617Z,9.95
2022-10-08T03:22:20.391Z,9.02
2022-10-08T03:24:53.697Z,9.23
2022-10-08T03:27:25.855Z,10.70
2022-10-08T03:29:57.354Z,11.23
2022-10-08T03:32:30.303Z,11.45
2022-10-08T03:35:00.189Z,12.13
2022-10-08T03:37:29.904Z,13.65
2022-10-08T03:39:59.597Z,13.02
2022-10-08T03:42:29.322Z,13.05
2022-10-08T03:45:01.316Z,13.38
2022-10-08T03:47:33.595Z,12.65
2022-10-08T03:50:03.347Z,13.13
2022-10-08T03:52:33.359Z,13.77
2022-10-08T03:55:03.190Z,13.70
2022-10-08T03:57:32.950Z,13.30
2022-10-08T04:00:02.722Z,12.85
2022-10-08T04:02:35.104Z,13.40
2022-10-08T04:05:04.845Z,13.55
2022-10-08T04:07:34.565Z,12.15
2022-10-08T04:10:04.275Z,12.85
2022-10-08T04:12:33.998Z,12.85
2022-10-08T04:15:03.693Z,12.68
2022-10-08T04:17:36.011Z,12.02
2022-10-08T04:20:05.963Z,12.68
2022-10-08T04:22:35.702Z,13.32
2022-10-08T04:25:05.526Z,12.93
2022-10-08T04:27:35.276Z,14.00
2022-10-08T04:30:04.989Z,13.30
2022-10-08T04:32:37.395Z,14.02
2022-10-08T04:35:07.941Z,13.90
2022-10-08T04:37:37.794Z,14.75
2022-10-08T04:40:08.307Z,13.82
2022-10-08T04:42:38.049Z,14.85
2022-10-08T04:45:08.688Z,15.43
2022-10-08T04:47:41.036Z,14.85
2022-10-08T04:50:11.677Z,15.40
2022-10-08T04:52:41.436Z,15.65
2022-10-08T04:55:12.425Z,15.43
2022-10-08T04:57:42.156Z,14.80
2022-10-08T05:00:18.148Z,15.90
2022-10-08T05:02:51.226Z,15.20
2022-10-08T05:05:21.584Z,15.15
2022-10-08T05:07:51.324Z,15.18
2022-10-08T05:10:21.024Z,15.38
2022-10-08T05:12:50.750Z,14.48
2022-10-08T05:15:20.655Z,15.63
2022-10-08T05:17:52.949Z,15.60
2022-10-08T05:20:22.991Z,15.35
2022-10-08T05:22:52.697Z,14.27
2022-10-08T05:25:22.445Z,14.27
2022-10-08T05:27:52.500Z,13.40
2022-10-08T05:30:22.264Z,14.57
2022-10-08T05:32:54.645Z,15.57
2022-10-08T05:35:24.347Z,14.73
2022-10-08T05:37:54.138Z,16.63
2022-10-08T05:40:24.321Z,15.35
2022-10-08T05:42:55.033Z,15.73
2022-10-08T05:45:24.893Z,15.73
2022-10-08T05:47:57.199Z,15.15
2022-10-08T05:50:26.889Z,16.40
2022-10-08T05:52:56.607Z,17.10
2022-10-08T05:55:27.499Z,17.15
2022-10-08T05:57:57.222Z,15.02
2022-10-08T06:00:26.924Z,15.98
2022-10-08T06:02:59.264Z,15.98
2022-10-08T06:05:29.044Z,16.13
2022-10-08T06:07:59.939Z,16.38
2022-10-08T06:10:31.954Z,16.58
2022-10-08T06:13:01.724Z,15.30
2022-10-08T06:15:31.442Z,15.73
2022-10-08T06:18:03.864Z,15.50
2022-10-08T06:20:33.668Z,14.95
2022-10-08T06:23:03.437Z,15.77
2022-10-08T06:25:33.153Z,14.93
2022-10-08T06:28:02.936Z,16.02
2022-10-08T06:30:32.781Z,15.32
2022-10-08T06:33:05.319Z,17.17
2022-10-08T06:35:35.021Z,17.20
2022-10-08T06:38:04.968Z,15.88
2022-10-08T06:40:38.964Z,15.40
2022-10-08T06:43:10.261Z,16.08
2022-10-08T06:45:42.064Z,15.55
2022-10-08T06:48:15.473Z,13.50
2022-10-08T06:50:45.401Z,13.17
2022-10-08T06:53:15.152Z,13.18
2022-10-08T06:55:45.002Z,12.35
2022-10-08T06:58:14.689Z,12.43
2022-10-08T07:00:44.493Z,12.00
2022-10-08T07:03:16.823Z,11.93
2022-10-08T07:05:46.549Z,12.02
2022-10-08T07:08:17.018Z,11.35
2022-10-08T07:10:47.026Z,11.25
2022-10-08T07:13:16.751Z,11.30
2022-10-08T07:15:46.457Z,11.50
2022-10-08T07:18:18.746Z,10.52
2022-10-08T07:20:58.244Z,9.82
2022-10-08T07:23:28.589Z,10.20
2022-10-08T07:26:00.128Z,8.50
2022-10-08T07:28:31.998Z,7.95
2022-10-08T07:31:06.140Z,8.02
2022-10-08T07:33:40.200Z,7.88
2022-10-08T07:36:12.098Z,6.38
2022-10-08T07:38:42.460Z,6.53
2022-10-08T07:41:14.243Z,6.38
2022-10-08T07:43:44.061Z,5.35
2022-10-08T07:46:14.795Z,5.00
2022-10-08T07:48:47.107Z,4.25
2022-10-08T07:51:19.323Z,3.80
2022-10-08T07:53:49.587Z,3.58
2022-10-08T07:56:21.731Z,3.85
2022-10-08T07:58:52.496Z,3.28
2022-10-08T08:01:28.314Z,3.45
2022-10-08T08:04:02.560Z,3.85
2022-10-08T08:06:34.034Z,3.58
2022-10-08T08:09:04.655Z,3.05
2022-10-08T08:11:34.463Z,2.75
2022-10-08T08:14:04.236Z,2.70
2022-10-08T08:16:34.148Z,2.80
2022-10-08T08:19:07.277Z,2.40
2022-10-08T08:21:39.119Z,2.47
2022-10-08T08:24:10.669Z,2.80
2022-10-08T08:26:42.302Z,2.53
2022-10-08T08:29:14.251Z,3.38
2022-10-08T08:31:46.273Z,2.60
2022-10-08T08:34:20.805Z,2.63
2022-10-08T08:36:53.594Z,2.65
2022-10-08T08:39:25.389Z,2.40
2022-10-08T08:42:26.878Z,1.90
2022-10-08T08:45:01.777Z,2.95
2022-10-08T08:47:36.764Z,2.47
2022-10-08T08:50:21.732Z,2.67
2022-10-08T08:52:51.537Z,4.75
2022-10-08T08:55:28.919Z,2.55
2022-10-08T08:58:04.379Z,2.40
2022-10-08T09:00:41.896Z,2.75
2022-10-08T09:03:22.941Z,2.15
2022-10-08T09:05:57.600Z,2.67
2022-10-08T09:08:32.665Z,2.53
2022-10-08T09:11:04.207Z,2.88
2022-10-08T09:13:39.611Z,2.58
2022-10-08T09:16:09.515Z,3.10
2022-10-08T09:18:40.471Z,2.40
2022-10-08T09:21:12.762Z,3.00
2022-10-08T09:23:42.491Z,2.60
2022-10-08T09:26:18.057Z,2.22
2022-10-08T09:28:49.972Z,2.95
2022-10-08T09:31:30.123Z,2.38
2022-10-08T09:34:07.628Z,3.42
2022-10-08T09:36:44.737Z,2.50
2022-10-08T09:39:21.048Z,2.60
2022-10-08T09:42:12.144Z,2.35
2022-10-08T09:44:43.528Z,2.90
2022-10-08T09:47:15.159Z,2.60
2022-10-08T09:49:49.801Z,3.10
2022-10-08T09:52:26.816Z,3.20
2022-10-08T09:55:00.841Z,3.50
2022-10-08T09:57:31.636Z,3.05
2022-10-08T10:00:03.130Z,2.78
2022-10-08T10:02:35.548Z,3.05
2022-10-08T10:05:08.070Z,2.47
2022-10-08T10:07:46.045Z,2.20
2022-10-08T10:10:20.824Z,1.95
2022-10-08T10:12:53.982Z,2.80
2022-10-08T10:15:27.675Z,2.00
2022-10-08T10:17:59.736Z,2.50
2022-10-08T10:20:33.160Z,1.75
2022-10-08T10:23:09.094Z,2.07
2022-10-08T10:25:42.725Z,2.28
2022-10-08T10:28:19.449Z,2.05
2022-10-08T10:30:56.477Z,2.65
2022-10-08T10:33:31.007Z,2.72
2022-10-08T10:36:04.455Z,2.28
2022-10-08T10:38:43.074Z,2.03
2022-10-08T10:41:20.099Z,2.25
2022-10-08T10:43:53.737Z,2.15
2022-10-08T10:46:34.649Z,2.15
2022-10-08T10:49:05.069Z,2.03
2022-10-08T10:52:06.447Z,2.28
2022-10-08T10:54:57.675Z,1.63
2022-10-08T10:57:41.792Z,2.22
2022-10-08T11:00:16.914Z,2.22
2022-10-08T11:02:54.635Z,2.20
2022-10-08T11:05:26.642Z,2.03
2022-10-08T11:08:20.840Z,1.98
2022-10-08T11:11:02.436Z,1.80
2022-10-08T11:13:46.505Z,2.40
2022-10-08T11:16:28.705Z,2.10
2022-10-08T11:19:00.424Z,2.33
2022-10-08T11:21:47.104Z,2.42
2022-10-08T11:24:32.377Z,2.20
2022-10-08T11:27:11.379Z,1.83
2022-10-08T11:29:46.841Z,1.80
2022-10-08T11:32:19.702Z,1.85
2022-10-08T11:34:54.402Z,2.30
2022-10-08T11:37:30.215Z,1.90
2022-10-08T11:40:10.137Z,1.65
2022-10-08T11:42:50.064Z,1.85
2022-10-08T11:45:34.943Z,1.90
2022-10-08T11:48:34.870Z,2.13
2022-10-08T11:51:33.839Z,2.08
2022-10-08T11:54:15.186Z,2.10
2022-10-08T11:56:47.896Z,2.10
2022-10-08T11:59:34.420Z,1.83
2022-10-08T12:02:06.438Z,2.20
2022-10-08T12:04:38.349Z,2.03
2022-10-08T12:07:20.557Z,1.92
2022-10-08T12:10:19.986Z,1.75
2022-10-08T12:13:06.851Z,2.22
2022-10-08T12:16:04.819Z,1.55
2022-10-08T12:18:46.124Z,1.75
2022-10-08T12:21:39.032Z,2.15
2022-10-08T12:24:44.790Z,1.90
2022-10-08T12:27:37.861Z,2.10
2022-10-08T12:30:11.022Z,1.42
2022-10-08T12:32:59.807Z,1.10
2022-10-08T12:35:32.793Z,1.15
2022-10-08T12:38:26.898Z,1.30
2022-10-08T12:41:07.593Z,1.37
2022-10-08T12:43:45.832Z,1.60
2022-10-08T12:46:25.713Z,1.45
2022-10-08T12:49:03.166Z,1.90
2022-10-08T12:51:44.032Z,1.80
2022-10-08T12:54:21.185Z,1.30
2022-10-08T12:56:52.196Z,1.10
2022-10-08T12:59:23.899Z,1.75
2022-10-08T13:01:54.501Z,1.25
2022-10-08T13:04:29.323Z,1.38
2022-10-08T13:06:59.371Z,1.20
2022-10-08T13:09:31.977Z,1.38
2022-10-08T13:12:04.095Z,1.15
2022-10-08T13:14:35.327Z,1.52
2022-10-08T13:17:05.852Z,1.73
2022-10-08T13:19:40.097Z,1.50
2022-10-08T13:24:42.803Z,1.38
2022-10-08T13:27:26.212Z,1.35
2022-10-08T13:29:56.246Z,1.30
2022-10-08T13:32:28.293Z,1.20
2022-10-08T13:35:02.742Z,1.20
2022-10-08T13:37:36.274Z,1.20
2022-10-08T13:40:19.587Z,1.02
2022-10-08T13:42:52.334Z,1.83
2022-10-08T13:45:24.090Z,1.38
2022-10-08T13:47:54.862Z,1.40
2022-10-08T13:50:27.337Z,1.23
2022-10-08T13:52:59.671Z,1.45
2022-10-08T13:55:31.341Z,1.40
2022-10-08T13:58:02.924Z,1.40
2022-10-08T14:00:34.276Z,1.33
2022-10-08T14:03:04.437Z,1.30
2022-10-08T14:05:40.261Z,1.38
2022-10-08T14:08:16.251Z,0.93
2022-10-08T14:10:47.104Z,1.40
2022-10-08T14:13:18.405Z,1.20
2022-10-08T14:15:48.156Z,0.95
2022-10-08T14:18:17.923Z,0.95
2022-10-08T14:20:53.537Z,1.20
2022-10-08T14:23:23.372Z,1.13
2022-10-08T14:25:54.319Z,1.00
2022-10-08T14:28:24.102Z,1.00
2022-10-08T14:30:53.834Z,0.93
2022-10-08T14:33:23.535Z,0.93
2022-10-08T14:35:56.214Z,0.95
2022-10-08T14:38:26.006Z,0.70
2022-10-08T14:40:55.775Z,1.02
2022-10-08T14:43:27.692Z,0.70
2022-10-08T14:45:57.710Z,0.90
2022-10-08T14:48:27.740Z,0.90
2022-10-08T14:51:01.973Z,0.80
2022-10-08T14:56:11.955Z,0.70
2022-10-08T14:58:43.079Z,3.30
2022-10-08T15:01:12.831Z,1.30
2022-10-08T15:03:45.639Z,0.90
2022-10-08T15:06:18.205Z,0.88
2022-10-08T15:08:48.278Z,1.23
2022-10-08T15:11:18.006Z,1.20
2022-10-08T15:13:47.711Z,0.88
2022-10-08T15:16:17.580Z,0.90
2022-10-08T15:18:47.393Z,0.82
2022-10-08T15:21:20.467Z,0.80
2022-10-08T15:23:50.439Z,1.83
2022-10-08T15:26:21.834Z,1.00
2022-10-08T15:28:53.615Z,1.48
2022-10-08T15:31:25.131Z,1.40
2022-10-08T15:33:59.527Z,1.27
2022-10-08T15:39:04.693Z,1.17
2022-10-08T15:41:38.734Z,1.00
2022-10-08T15:44:12.999Z,1.55
2022-10-08T15:46:42.889Z,1.35
2022-10-08T15:49:12.665Z,0.70
2022-10-08T15:51:45.463Z,0.82
2022-10-08T15:54:15.205Z,1.08
2022-10-08T15:56:44.992Z,1.38
2022-10-08T15:59:14.759Z,0.98
2022-10-08T16:01:44.471Z,1.00
2022-10-08T16:04:15.171Z,1.25
2022-10-08T16:06:47.830Z,1.42
2022-10-08T16:09:19.119Z,1.30
2022-10-08T16:11:50.579Z,1.20
2022-10-08T16:14:22.106Z,1.50
2022-10-08T16:16:52.869Z,1.27
2022-10-08T16:19:24.429Z,1.58
2022-10-08T16:21:59.137Z,1.33
2022-10-08T16:24:29.121Z,1.05
2022-10-08T16:26:58.861Z,1.92
2022-10-08T16:29:28.775Z,1.67
2022-10-08T16:31:58.619Z,1.75
2022-10-08T16:34:31.002Z,1.52
2022-10-08T16:37:04.876Z,1.88
2022-10-08T16:39:34.639Z,1.80
2022-10-08T16:42:04.385Z,3.97
2022-10-08T16:44:34.145Z,2.00
2022-10-08T16:47:03.903Z,1.92
2022-10-08T16:49:33.691Z,1.85
2022-10-08T16:52:08.274Z,2.20
2022-10-08T16:54:38.718Z,2.20
2022-10-08T16:57:08.495Z,2.03
2022-10-08T16:59:38.276Z,1.75
2022-10-08T17:02:08.034Z,2.35
2022-10-08T17:04:39.665Z,1.90
2022-10-08T17:07:12.184Z,2.00
2022-10-08T17:09:41.908Z,2.42
2022-10-08T17:12:11.678Z,2.30
2022-10-08T17:14:41.421Z,3.03
2022-10-08T17:17:11.219Z,2.67
2022-10-08T17:19:41.202Z,2.33
2022-10-08T17:22:16.291Z,2.80
2022-10-08T17:24:46.034Z,2.50
2022-10-08T17:27:15.781Z,2.95
2022-10-08T17:29:45.594Z,3.78
2022-10-08T17:32:15.322Z,6.80
2022-10-08T17:34:45.085Z,8.27
2022-10-08T17:37:17.395Z,6.05
2022-10-08T17:39:47.567Z,6.85
2022-10-08T17:42:17.326Z,6.85
2022-10-08T17:44:47.082Z,5.20
2022-10-08T17:47:16.803Z,6.30
2022-10-08T17:49:46.515Z,5.22
2022-10-08T17:52:18.808Z,5.82
2022-10-08T17:54:48.534Z,4.30
2022-10-08T17:57:18.254Z,4.60
2022-10-08T17:59:47.948Z,6.85
2022-10-08T18:02:17.701Z,5.40
2022-10-08T18:04:47.479Z,4.60
2022-10-08T18:07:19.943Z,4.65
2022-10-08T18:09:50.050Z,3.83
2022-10-08T18:12:19.775Z,3.85
2022-10-08T18:14:50.640Z,3.33
2022-10-08T18:17:20.379Z,3.55
2022-10-08T18:19:50.102Z,3.75
2022-10-08T18:22:23.058Z,3.35
2022-10-08T18:24:52.854Z,3.38
2022-10-08T18:27:22.600Z,3.08
2022-10-08T18:29:52.320Z,3.05
2022-10-08T18:32:22.060Z,3.42
2022-10-08T18:34:52.138Z,3.38
2022-10-08T18:37:25.292Z,3.30
2022-10-08T18:39:55.166Z,3.40
2022-10-08T18:42:24.915Z,3.08
2022-10-08T18:44:54.729Z,3.25
2022-10-08T18:47:24.460Z,2.97
2022-10-08T18:49:54.190Z,3.13
2022-10-08T18:52:27.154Z,3.13
2022-10-08T18:55:00.169Z,4.18
2022-10-08T18:57:29.889Z,3.90
2022-10-08T18:59:59.636Z,4.43
2022-10-08T19:02:29.549Z,4.32
2022-10-08T19:05:00.936Z,3.67
2022-10-08T19:07:33.473Z,3.80
2022-10-08T19:10:03.219Z,4.13
2022-10-08T19:12:33.086Z,4.05
2022-10-08T19:15:02.786Z,4.68
2022-10-08T19:17:32.557Z,3.88
2022-10-08T19:20:02.315Z,4.47
2022-10-08T19:22:34.625Z,4.55
2022-10-08T19:25:04.487Z,5.63
2022-10-08T19:27:34.175Z,5.32
2022-10-08T19:30:03.893Z,5.47
2022-10-08T19:32:33.647Z,5.47
2022-10-08T19:35:03.495Z,5.25
2022-10-08T19:37:35.788Z,5.22
2022-10-08T19:40:06.181Z,6.03
2022-10-08T19:42:35.987Z,6.80
2022-10-08T19:45:05.953Z,6.40
2022-10-08T19:47:36.123Z,6.50
2022-10-08T19:50:06.057Z,7.45
2022-10-08T19:52:38.366Z,6.53
2022-10-08T19:55:09.568Z,6.57
2022-10-08T19:57:39.307Z,6.30
2022-10-08T20:00:10.517Z,7.70
2022-10-08T20:02:40.274Z,7.47
2022-10-08T20:05:11.318Z,7.40
2022-10-08T20:07:43.775Z,7.97
2022-10-08T20:10:17.695Z,7.50
2022-10-08T20:12:47.670Z,7.97
2022-10-08T20:15:17.749Z,6.70
2022-10-08T20:17:47.467Z,7.00
2022-10-08T20:20:32.470Z,6.90
2022-10-08T20:23:06.057Z,7.22
2022-10-08T20:25:35.904Z,7.05
2022-10-08T20:28:05.649Z,6.68
2022-10-08T20:30:35.452Z,6.93
2022-10-08T20:33:05.154Z,7.18
2022-10-08T20:35:38.497Z,6.05
2022-10-08T20:38:10.884Z,6.93
2022-10-08T20:40:42.215Z,7.32
2022-10-08T20:43:11.966Z,8.10
2022-10-08T20:45:41.751Z,6.93
2022-10-08T20:48:11.475Z,7.10
2022-10-08T20:50:41.206Z,6.63
2022-10-08T20:53:13.637Z,7.40
2022-10-08T20:55:43.458Z,8.68
2022-10-08T20:58:13.303Z,8.13
2022-10-08T21:00:43.076Z,8.57
2022-10-08T21:03:12.793Z,7.93
2022-10-08T21:05:45.684Z,7.07
2022-10-08T21:08:18.111Z,7.50
2022-10-08T21:10:47.863Z,7.80
2022-10-08T21:13:17.597Z,8.02
2022-10-08T21:15:47.335Z,8.30
2022-10-08T21:18:17.123Z,8.30
2022-10-08T21:20:48.774Z,7.10
2022-10-08T21:23:21.079Z,7.97
2022-10-08T21:25:50.891Z,7.72
2022-10-08T21:28:20.764Z,7.55
2022-10-08T21:30:55.753Z,7.53
2022-10-08T21:33:25.482Z,8.30
2022-10-08T21:35:58.122Z,8.95
2022-10-08T21:38:30.421Z,8.10
2022-10-08T21:41:01.225Z,8.90
2022-10-08T21:43:32.823Z,8.35
2022-10-08T21:46:03.633Z,9.45
2022-10-08T21:48:33.537Z,8.88
2022-10-08T21:51:05.103Z,9.18
2022-10-08T21:53:39.015Z,8.80
2022-10-08T21:56:10.625Z,9.10
2022-10-08T21:58:42.964Z,9.50
2022-10-08T22:01:24.959Z,8.82
2022-10-08T22:03:58.550Z,8.77
2022-10-08T22:06:29.753Z,9.43
2022-10-08T22:09:03.462Z,8.77
2022-10-08T22:11:33.229Z,9.10
2022-10-08T22:14:03.029Z,9.57
2022-10-08T22:16:32.831Z,9.05
2022-10-08T22:19:03.057Z,9.30
2022-10-08T22:21:32.869Z,9.02
2022-10-08T22:24:05.570Z,9.18
2022-10-08T22:26:37.550Z,8.80
2022-10-08T22:29:08.179Z,9.85
2022-10-08T22:31:38.378Z,8.60
2022-10-08T22:34:08.468Z,7.85
2022-10-08T22:36:42.035Z,8.43
2022-10-08T22:39:14.877Z,8.00
2022-10-08T22:41:44.661Z,9.30
2022-10-08T22:44:14.569Z,9.10
2022-10-08T22:46:44.331Z,8.75
2022-10-08T22:49:14.919Z,8.70
2022-10-08T22:51:44.734Z,8.98
2022-10-08T22:54:17.251Z,9.25
2022-10-08T22:56:46.997Z,8.98
2022-10-08T22:59:16.723Z,8.75
2022-10-08T23:01:46.476Z,8.52
2022-10-08T23:04:16.205Z,9.27
2022-10-08T23:06:45.923Z,8.65
2022-10-08T23:09:18.395Z,8.88
2022-10-08T23:11:48.181Z,8.73
2022-10-08T23:14:17.900Z,8.75
2022-10-08T23:16:47.725Z,9.18
2022-10-08T23:19:17.585Z,8.73
2022-10-08T23:21:47.328Z,8.88
2022-10-08T23:24:19.695Z,9.57
2022-10-08T23:26:49.873Z,8.73
2022-10-08T23:29:19.879Z,9.05
2022-10-08T23:31:49.830Z,8.93
2022-10-08T23:34:19.655Z,8.45
2022-10-08T23:36:49.377Z,10.05
2022-10-08T23:39:21.881Z,9.98
2022-10-08T23:41:51.608Z,9.75
2022-10-08T23:44:21.340Z,10.07
2022-10-08T23:46:51.119Z,9.85
2022-10-08T23:49:20.933Z,9.30
2022-10-08T23:51:50.671Z,9.88
2022-10-08T23:54:22.965Z,9.10
2022-10-08T23:56:52.730Z,10.45
2022-10-08T23:59:22.423Z,10.18
